Time;durP1;ratioP1;P1;durP2;ratioP2;P2;SDS_P1;SDS_P2;PMS_P1;PMS_P2;Temp;Humidity;BMP_temperature;BMP_pressure;BME280_temperature;BME280_humidity;BME280_pressure;Samples;Min_cycle;Max_cycle;Signal;HPM_P1;HPM_P2
2023/03/18 00:00:17;;;;;;;;;;;13.80;99.90;;;;;;7347448;19;109767;-76
2023/03/18 00:02:45;;;;;;;;;;;13.80;99.90;;;;;;7337362;19;109051;-76
2023/03/18 00:05:13;;;;;;;;;;;13.80;99.90;;;;;;7340578;19;109785;-75
2023/03/18 00:07:40;;;;;;;;;;;13.70;99.90;;;;;;7339416;19;110241;-76
2023/03/18 00:10:10;;;;;;;;;;;13.70;99.90;;;;;;7339919;19;109408;-76
2023/03/18 00:12:39;;;;;;;;;;;13.70;99.90;;;;;;7338961;19;111482;-76
2023/03/18 00:15:07;;;;;;;;;;;13.70;99.90;;;;;;7338311;19;109802;-76
2023/03/18 00:17:34;;;;;;;;;;;13.70;99.90;;;;;;7342820;19;108466;-76
2023/03/18 00:20:04;;;;;;;;;;;13.70;99.90;;;;;;7337399;19;109315;-76
2023/03/18 00:22:36;;;;;;;;;;;13.70;99.90;;;;;;7345591;19;112787;-76
2023/03/18 00:25:04;;;;;;;;;;;13.70;99.90;;;;;;7338807;19;110549;-76
2023/03/18 00:27:32;;;;;;;;;;;13.70;99.90;;;;;;7338683;19;110342;-76
2023/03/18 00:29:59;;;;;;;;;;;13.70;99.90;;;;;;7339206;19;108987;-76
2023/03/18 00:32:26;;;;;;;;;;;13.80;99.90;;;;;;7340376;19;109376;-76
2023/03/18 00:34:55;;;;;;;;;;;13.80;99.90;;;;;;7338797;19;109781;-76
2023/03/18 00:37:34;;;;;;;;;;;13.80;99.90;;;;;;7340134;19;108924;-76
2023/03/18 00:40:05;;;;;;;;;;;13.80;99.90;;;;;;7338227;19;109115;-79
2023/03/18 00:42:37;;;;;;;;;;;13.80;99.90;;;;;;7336939;19;110616;-79
2023/03/18 00:45:06;;;;;;;;;;;13.80;99.90;;;;;;7344535;19;108824;-77
2023/03/18 00:47:34;;;;;;;;;;;13.80;99.90;;;;;;7338174;19;109499;-76
2023/03/18 00:50:02;;;;;;;;;;;13.80;99.90;;;;;;7339469;19;110533;-78
2023/03/18 00:52:29;;;;;;;;;;;13.80;99.90;;;;;;7339193;19;109110;-77
2023/03/18 00:54:58;;;;;;;;;;;13.80;99.90;;;;;;7336302;19;110554;-75
2023/03/18 00:57:26;;;;;;;;;;;13.80;99.90;;;;;;7336390;19;108630;-75
2023/03/18 00:59:55;;;;;;;;;;;13.70;99.90;;;;;;7338815;19;111869;-75
2023/03/18 01:02:24;;;;;;;;;;;13.70;99.90;;;;;;7362438;19;109787;-90
2023/03/18 01:04:52;;;;;;;;;;;13.70;99.90;;;;;;7374624;19;108350;-90
2023/03/18 01:07:19;;;;;;;;;;;13.70;99.90;;;;;;7371404;19;108871;-90
2023/03/18 01:09:46;;;;;;;;;;;13.70;99.90;;;;;;7352955;19;108336;-90
2023/03/18 01:12:12;;;;;;;;;;;13.60;99.90;;;;;;7335627;19;112018;-90
2023/03/18 01:14:40;;;;;;;;;;;13.70;99.90;;;;;;7329990;19;109453;-90
2023/03/18 01:17:07;;;;;;;;;;;13.70;99.90;;;;;;7336263;19;108928;-89
2023/03/18 01:30:38;;;;;;;;;;;13.60;99.90;;;;;;7330776;19;111045;-75
2023/03/18 01:33:08;;;;;;;;;;;13.60;99.90;;;;;;7336053;19;109489;-75
2023/03/18 01:35:36;;;;;;;;;;;13.60;99.90;;;;;;7334376;19;109084;-75
2023/03/18 01:38:04;;;;;;;;;;;13.50;99.90;;;;;;7335143;19;113124;-75
2023/03/18 01:40:32;;;;;;;;;;;13.50;99.90;;;;;;7332145;19;110410;-75
2023/03/18 01:43:14;;;;;;;;;;;13.50;99.90;;;;;;7334509;19;110330;-75
2023/03/18 01:45:52;;;;;;;;;;;13.50;99.90;;;;;;7335102;19;109118;-74
2023/03/18 01:48:22;;;;;;;;;;;13.50;99.90;;;;;;7333282;19;113858;-76
2023/03/18 01:50:52;;;;;;;;;;;13.30;99.90;;;;;;7339542;19;113811;-75
2023/03/18 01:53:20;;;;;;;;;;;13.30;99.90;;;;;;7334492;19;108583;-75
2023/03/18 01:55:48;;;;;;;;;;;13.30;99.90;;;;;;7337416;19;109382;-75
2023/03/18 01:58:18;;;;;;;;;;;13.20;99.90;;;;;;7334585;19;108536;-75
2023/03/18 02:00:50;;;;;;;;;;;13.20;99.90;;;;;;7334520;19;110878;-75
2023/03/18 02:03:28;;;;;;;;;;;13.20;99.90;;;;;;7332809;19;110409;-75
2023/03/18 02:05:55;;;;;;;;;;;13.20;99.90;;;;;;7336752;19;109113;-75
2023/03/18 02:08:22;;;;;;;;;;;13.20;99.90;;;;;;7336305;19;108502;-75
2023/03/18 02:10:49;;;;;;;;;;;13.30;99.90;;;;;;7332074;19;109796;-75
2023/03/18 02:13:17;;;;;;;;;;;13.30;99.90;;;;;;7342132;19;108825;-75
2023/03/18 02:15:55;;;;;;;;;;;13.30;99.90;;;;;;7333090;19;110172;-75
2023/03/18 02:18:26;;;;;;;;;;;13.30;99.90;;;;;;7333215;19;109976;-75
2023/03/18 02:21:06;;;;;;;;;;;13.30;99.90;;;;;;7336409;19;111908;-75
2023/03/18 02:23:48;;;;;;;;;;;13.30;99.90;;;;;;7332768;19;109431;-75
2023/03/18 02:26:27;;;;;;;;;;;13.40;99.90;;;;;;7332070;19;110701;-75
2023/03/18 02:28:57;;;;;;;;;;;13.40;99.90;;;;;;7337467;19;108736;-75
2023/03/18 02:31:24;;;;;;;;;;;13.40;99.90;;;;;;7334381;19;109379;-75
2023/03/18 02:33:52;;;;;;;;;;;13.40;99.90;;;;;;7334270;19;110281;-75
2023/03/18 02:36:23;;;;;;;;;;;13.40;99.90;;;;;;7338633;19;109306;-75
2023/03/18 02:38:50;;;;;;;;;;;13.40;99.90;;;;;;7334443;19;108513;-75
2023/03/18 02:41:19;;;;;;;;;;;13.30;99.90;;;;;;7331821;19;110686;-76
2023/03/18 02:43:46;;;;;;;;;;;13.30;99.90;;;;;;7334912;19;110228;-75
2023/03/18 02:46:13;;;;;;;;;;;13.20;99.90;;;;;;7331821;19;108741;-76
2023/03/18 02:48:42;;;;;;;;;;;13.30;99.90;;;;;;7334461;19;110627;-75
2023/03/18 02:51:10;;;;;;;;;;;13.30;99.90;;;;;;7335552;19;110354;-75
2023/03/18 02:53:38;;;;;;;;;;;13.30;99.90;;;;;;7335013;19;109057;-75
2023/03/18 02:56:05;;;;;;;;;;;13.30;99.90;;;;;;7334344;19;108705;-75
2023/03/18 02:58:33;;;;;;;;;;;13.30;99.90;;;;;;7339542;19;109833;-76
2023/03/18 03:01:00;;;;;;;;;;;13.30;99.90;;;;;;7336817;19;109193;-76
2023/03/18 03:03:28;;;;;;;;;;;13.30;99.90;;;;;;7341715;19;110026;-76
2023/03/18 03:05:55;;;;;;;;;;;13.30;99.90;;;;;;7343217;19;108946;-75
2023/03/18 03:08:23;;;;;;;;;;;13.30;99.90;;;;;;7340355;19;110253;-76
2023/03/18 03:10:51;;;;;;;;;;;13.20;99.90;;;;;;7338200;19;110646;-76
2023/03/18 03:13:19;;;;;;;;;;;13.20;99.90;;;;;;7341745;19;112487;-76
2023/03/18 03:15:47;;;;;;;;;;;13.10;99.90;;;;;;7343054;19;108737;-75
2023/03/18 03:18:14;;;;;;;;;;;13.10;99.90;;;;;;7346955;19;109891;-76
2023/03/18 03:20:42;;;;;;;;;;;13.10;99.90;;;;;;7340868;19;108542;-75
2023/03/18 03:23:11;;;;;;;;;;;13.10;99.90;;;;;;7339162;19;109614;-75
2023/03/18 03:25:38;;;;;;;;;;;13.00;99.90;;;;;;7340495;19;110011;-75
2023/03/18 03:28:06;;;;;;;;;;;13.00;99.90;;;;;;7340205;19;109632;-76
2023/03/18 03:30:33;;;;;;;;;;;13.00;99.90;;;;;;7340761;19;109728;-75
2023/03/18 03:33:01;;;;;;;;;;;12.90;99.90;;;;;;7340784;19;109285;-76
2023/03/18 03:35:28;;;;;;;;;;;12.90;99.90;;;;;;7339172;19;109376;-75
2023/03/18 03:37:55;;;;;;;;;;;12.90;99.90;;;;;;7341189;19;110164;-76
2023/03/18 03:40:22;;;;;;;;;;;12.90;99.90;;;;;;7345081;19;109763;-76
2023/03/18 03:42:50;;;;;;;;;;;12.90;99.90;;;;;;7339002;19;109727;-75
2023/03/18 03:45:18;;;;;;;;;;;12.90;99.90;;;;;;7341271;19;109011;-75
2023/03/18 03:47:45;;;;;;;;;;;12.90;99.90;;;;;;7339862;19;109899;-75
2023/03/18 03:50:13;;;;;;;;;;;12.90;99.90;;;;;;7340180;19;110455;-75
2023/03/18 03:52:41;;;;;;;;;;;12.90;99.90;;;;;;7337651;19;108376;-76
2023/03/18 03:55:09;;;;;;;;;;;12.90;99.90;;;;;;7341930;19;109240;-76
2023/03/18 03:57:36;;;;;;;;;;;12.90;99.90;;;;;;7337433;19;109140;-75
2023/03/18 04:00:04;;;;;;;;;;;13.00;99.90;;;;;;7336266;19;108951;-77
2023/03/18 04:02:32;;;;;;;;;;;13.00;99.90;;;;;;7344983;19;109669;-76
2023/03/18 04:04:59;;;;;;;;;;;13.00;99.90;;;;;;7340909;19;108805;-77
2023/03/18 04:07:26;;;;;;;;;;;13.00;99.90;;;;;;7336689;19;109165;-76
2023/03/18 04:09:54;;;;;;;;;;;13.00;99.90;;;;;;7338531;19;109333;-75
2023/03/18 04:12:21;;;;;;;;;;;13.00;99.90;;;;;;7340018;19;108850;-76
2023/03/18 04:14:49;;;;;;;;;;;12.90;99.90;;;;;;7335580;19;108947;-76
2023/03/18 04:17:17;;;;;;;;;;;13.00;99.90;;;;;;7337305;19;109860;-75
2023/03/18 04:19:44;;;;;;;;;;;12.90;99.90;;;;;;7338376;19;108797;-75
2023/03/18 04:22:11;;;;;;;;;;;12.90;99.90;;;;;;7336642;19;109318;-75
2023/03/18 04:24:38;;;;;;;;;;;12.90;99.90;;;;;;7345931;19;110773;-76
2023/03/18 04:27:05;;;;;;;;;;;12.90;99.90;;;;;;7338380;19;109447;-75
2023/03/18 04:29:32;;;;;;;;;;;12.90;99.90;;;;;;7337541;19;113619;-75
2023/03/18 04:31:59;;;;;;;;;;;12.90;99.90;;;;;;7336657;19;108637;-75
2023/03/18 04:34:26;;;;;;;;;;;12.90;99.90;;;;;;7338251;19;109154;-75
2023/03/18 04:36:54;;;;;;;;;;;12.90;99.90;;;;;;7337278;19;110310;-74
2023/03/18 04:39:21;;;;;;;;;;;12.90;99.90;;;;;;7335516;19;108786;-75
2023/03/18 04:41:49;;;;;;;;;;;12.80;99.90;;;;;;7333404;19;109597;-76
2023/03/18 04:44:16;;;;;;;;;;;12.70;99.90;;;;;;7340737;19;110530;-75
2023/03/18 04:46:47;;;;;;;;;;;12.70;99.90;;;;;;7340035;19;119778;-75
2023/03/18 04:49:14;;;;;;;;;;;12.70;99.90;;;;;;7338722;19;110164;-75
2023/03/18 04:51:41;;;;;;;;;;;12.60;99.90;;;;;;7336177;19;110861;-75
2023/03/18 04:54:08;;;;;;;;;;;12.50;99.90;;;;;;7338312;19;109874;-75
2023/03/18 04:56:35;;;;;;;;;;;12.40;99.90;;;;;;7339567;19;110221;-75
2023/03/18 04:59:02;;;;;;;;;;;12.30;99.90;;;;;;7336689;19;109417;-75
2023/03/18 05:01:29;;;;;;;;;;;12.20;99.90;;;;;;7340548;19;109075;-75
2023/03/18 05:03:56;;;;;;;;;;;12.20;99.90;;;;;;7337692;19;109235;-75
2023/03/18 05:06:25;;;;;;;;;;;12.20;99.90;;;;;;7339146;19;108504;-75
2023/03/18 05:08:52;;;;;;;;;;;12.10;99.90;;;;;;7343957;19;109250;-75
2023/03/18 05:11:20;;;;;;;;;;;12.00;99.90;;;;;;7336739;19;108649;-75
2023/03/18 05:13:47;;;;;;;;;;;11.90;99.90;;;;;;7337476;19;108715;-75
2023/03/18 05:16:14;;;;;;;;;;;11.90;99.90;;;;;;7335346;19;109514;-75
2023/03/18 05:18:41;;;;;;;;;;;11.90;99.90;;;;;;7337031;19;108603;-75
2023/03/18 05:21:09;;;;;;;;;;;11.80;99.90;;;;;;7338017;19;110724;-75
2023/03/18 05:23:36;;;;;;;;;;;11.80;99.90;;;;;;7336733;19;110619;-75
2023/03/18 05:26:05;;;;;;;;;;;11.80;99.90;;;;;;7337490;19;110755;-75
2023/03/18 05:28:33;;;;;;;;;;;11.80;99.90;;;;;;7341305;19;109152;-75
2023/03/18 05:31:00;;;;;;;;;;;11.70;99.90;;;;;;7335507;19;108742;-75
2023/03/18 05:33:27;;;;;;;;;;;11.60;99.90;;;;;;7335459;19;110367;-75
2023/03/18 05:35:54;;;;;;;;;;;11.60;99.90;;;;;;7336579;19;110391;-75
2023/03/18 05:38:21;;;;;;;;;;;11.50;99.90;;;;;;7334040;19;108888;-75
2023/03/18 05:40:48;;;;;;;;;;;11.50;99.90;;;;;;7335415;19;108792;-75
2023/03/18 05:43:15;;;;;;;;;;;11.50;99.90;;;;;;7335827;19;110578;-75
2023/03/18 05:45:44;;;;;;;;;;;11.40;99.90;;;;;;7338944;19;108944;-75
2023/03/18 05:48:11;;;;;;;;;;;11.40;99.90;;;;;;7335264;19;110244;-74
2023/03/18 05:50:40;;;;;;;;;;;11.40;99.90;;;;;;7343486;19;110165;-74
2023/03/18 05:53:08;;;;;;;;;;;11.30;99.90;;;;;;7337224;19;109365;-74
2023/03/18 05:55:35;;;;;;;;;;;11.30;99.90;;;;;;7335574;19;112137;-74
2023/03/18 05:58:03;;;;;;;;;;;11.30;99.90;;;;;;7337510;19;108877;-74
2023/03/18 06:00:30;;;;;;;;;;;11.20;99.90;;;;;;7332638;19;111924;-75
2023/03/18 06:02:58;;;;;;;;;;;11.20;99.90;;;;;;7336942;19;110189;-74
2023/03/18 06:05:25;;;;;;;;;;;11.10;99.90;;;;;;7336504;19;108895;-74
2023/03/18 06:07:53;;;;;;;;;;;11.10;99.90;;;;;;7336213;19;109447;-74
2023/03/18 06:10:21;;;;;;;;;;;11.00;99.90;;;;;;7330219;19;109708;-75
2023/03/18 06:12:48;;;;;;;;;;;11.00;99.90;;;;;;7341262;19;108628;-74
2023/03/18 06:15:16;;;;;;;;;;;11.00;99.90;;;;;;7333224;19;108491;-75
2023/03/18 06:17:43;;;;;;;;;;;11.00;99.90;;;;;;7335724;19;109143;-75
2023/03/18 06:20:14;;;;;;;;;;;11.00;99.90;;;;;;7335736;19;108966;-74
2023/03/18 06:22:42;;;;;;;;;;;11.00;99.90;;;;;;7334099;19;111099;-74
2023/03/18 06:25:09;;;;;;;;;;;11.00;99.90;;;;;;7332487;19;109391;-75
2023/03/18 06:27:36;;;;;;;;;;;11.00;99.90;;;;;;7335548;19;108990;-75
2023/03/18 06:30:04;;;;;;;;;;;11.00;99.90;;;;;;7333018;19;110552;-75
2023/03/18 06:32:32;;;;;;;;;;;11.10;99.90;;;;;;7335176;19;108493;-75
2023/03/18 06:34:59;;;;;;;;;;;11.10;99.90;;;;;;7341741;19;109874;-75
2023/03/18 06:37:27;;;;;;;;;;;11.20;99.90;;;;;;7333756;19;108578;-75
2023/03/18 06:39:54;;;;;;;;;;;11.30;99.90;;;;;;7336975;19;109019;-75
2023/03/18 06:42:21;;;;;;;;;;;11.30;99.90;;;;;;7333082;19;110464;-75
2023/03/18 06:44:49;;;;;;;;;;;11.40;99.90;;;;;;7334213;19;108514;-75
2023/03/18 06:47:17;;;;;;;;;;;11.40;99.90;;;;;;7333343;19;108834;-75
2023/03/18 06:49:44;;;;;;;;;;;11.50;99.90;;;;;;7332082;19;110266;-75
2023/03/18 06:52:12;;;;;;;;;;;11.50;99.90;;;;;;7334553;19;108732;-74
2023/03/18 06:54:39;;;;;;;;;;;11.50;99.90;;;;;;7333363;19;110351;-75
2023/03/18 06:57:07;;;;;;;;;;;11.60;99.90;;;;;;7338033;19;110117;-75
2023/03/18 06:59:34;;;;;;;;;;;11.60;99.90;;;;;;7334013;19;109205;-74
2023/03/18 07:02:01;;;;;;;;;;;11.60;99.90;;;;;;7336015;19;110357;-74
2023/03/18 07:04:29;;;;;;;;;;;11.70;99.90;;;;;;7333199;19;108951;-74
2023/03/18 07:06:56;;;;;;;;;;;11.70;99.90;;;;;;7335510;19;109471;-74
2023/03/18 07:09:23;;;;;;;;;;;11.80;99.90;;;;;;7335961;19;110275;-74
2023/03/18 07:11:52;;;;;;;;;;;11.80;99.90;;;;;;7329833;19;109076;-75
2023/03/18 07:14:22;;;;;;;;;;;11.90;99.90;;;;;;7331678;19;108991;-76
2023/03/18 07:16:49;;;;;;;;;;;12.00;99.90;;;;;;7333790;19;110122;-76
2023/03/18 07:19:17;;;;;;;;;;;12.00;99.90;;;;;;7339097;19;110332;-76
2023/03/18 07:21:45;;;;;;;;;;;12.10;99.90;;;;;;7333470;19;109111;-77
2023/03/18 07:24:13;;;;;;;;;;;12.10;99.90;;;;;;7335769;19;109728;-77
2023/03/18 07:26:40;;;;;;;;;;;12.20;99.90;;;;;;7331355;19;109103;-75
2023/03/18 07:29:07;;;;;;;;;;;12.30;99.90;;;;;;7332246;19;110510;-76
2023/03/18 07:31:34;;;;;;;;;;;12.50;99.90;;;;;;7331465;19;109507;-75
2023/03/18 07:34:01;;;;;;;;;;;12.50;99.90;;;;;;7331956;19;109691;-75
2023/03/18 07:36:28;;;;;;;;;;;12.70;99.90;;;;;;7331685;19;109366;-75
2023/03/18 07:38:55;;;;;;;;;;;12.80;99.90;;;;;;7337429;19;109400;-75
2023/03/18 07:41:22;;;;;;;;;;;12.90;99.90;;;;;;7330260;19;109217;-78
2023/03/18 07:43:49;;;;;;;;;;;13.00;99.90;;;;;;7332116;19;110883;-77
2023/03/18 07:46:16;;;;;;;;;;;13.10;99.90;;;;;;7331731;19;108772;-76
2023/03/18 07:48:43;;;;;;;;;;;13.30;99.90;;;;;;7335888;19;109136;-77
2023/03/18 07:51:11;;;;;;;;;;;13.40;99.90;;;;;;7337750;19;108627;-76
2023/03/18 07:53:38;;;;;;;;;;;13.50;99.90;;;;;;7340906;19;110973;-77
2023/03/18 07:56:06;;;;;;;;;;;13.60;99.90;;;;;;7344274;19;110283;-76
2023/03/18 07:58:33;;;;;;;;;;;13.70;99.90;;;;;;7342762;19;108766;-76
2023/03/18 08:01:00;;;;;;;;;;;13.80;99.90;;;;;;7343508;19;108579;-76
2023/03/18 08:03:28;;;;;;;;;;;13.90;99.90;;;;;;7343617;19;108642;-77
2023/03/18 08:05:56;;;;;;;;;;;14.00;99.90;;;;;;7342490;19;109545;-76
2023/03/18 08:08:23;;;;;;;;;;;14.10;99.90;;;;;;7336149;19;113796;-76
2023/03/18 08:10:53;;;;;;;;;;;14.20;99.90;;;;;;7338278;19;108571;-75
2023/03/18 08:13:20;;;;;;;;;;;14.30;99.90;;;;;;7335375;19;109249;-76
2023/03/18 08:15:47;;;;;;;;;;;14.40;99.90;;;;;;7335976;19;111158;-76
2023/03/18 08:18:14;;;;;;;;;;;14.40;99.90;;;;;;7337969;19;109063;-75
2023/03/18 08:20:41;;;;;;;;;;;14.40;99.90;;;;;;7336366;19;109741;-75
2023/03/18 08:23:08;;;;;;;;;;;14.50;99.90;;;;;;7343155;19;111487;-76
2023/03/18 08:25:35;;;;;;;;;;;14.50;99.90;;;;;;7335677;19;110442;-75
2023/03/18 08:28:06;;;;;;;;;;;14.50;99.90;;;;;;7338544;19;109268;-76
2023/03/18 08:30:34;;;;;;;;;;;14.50;99.90;;;;;;7331300;19;110545;-76
2023/03/18 08:33:01;;;;;;;;;;;14.50;99.90;;;;;;7339113;19;108904;-76
2023/03/18 08:35:29;;;;;;;;;;;14.40;99.90;;;;;;7334723;19;109320;-75
2023/03/18 08:37:56;;;;;;;;;;;14.40;99.90;;;;;;7334167;19;108722;-76
2023/03/18 08:40:24;;;;;;;;;;;14.50;99.90;;;;;;7328131;19;112108;-76
2023/03/18 08:42:52;;;;;;;;;;;14.60;99.90;;;;;;7327049;19;110291;-76
2023/03/18 08:45:20;;;;;;;;;;;14.70;99.90;;;;;;7338544;19;109103;-76
2023/03/18 08:47:47;;;;;;;;;;;14.70;99.90;;;;;;7333501;19;110231;-76
2023/03/18 08:50:14;;;;;;;;;;;14.80;99.90;;;;;;7335683;19;108816;-76
2023/03/18 08:52:41;;;;;;;;;;;14.90;99.90;;;;;;7336628;19;109184;-76
2023/03/18 08:55:08;;;;;;;;;;;14.90;99.90;;;;;;7332731;19;110457;-76
2023/03/18 08:57:36;;;;;;;;;;;14.90;99.90;;;;;;7336685;19;110666;-77
2023/03/18 09:00:04;;;;;;;;;;;15.00;99.90;;;;;;7336527;19;109196;-77
2023/03/18 09:02:32;;;;;;;;;;;15.10;99.90;;;;;;7334005;19;110240;-77
2023/03/18 09:04:59;;;;;;;;;;;15.30;99.90;;;;;;7335216;19;110009;-78
2023/03/18 09:07:27;;;;;;;;;;;15.40;99.90;;;;;;7344395;19;109752;-77
2023/03/18 09:09:54;;;;;;;;;;;15.50;99.90;;;;;;7336374;19;110861;-77
2023/03/18 09:12:21;;;;;;;;;;;15.50;99.90;;;;;;7334160;19;111724;-77
2023/03/18 09:14:48;;;;;;;;;;;15.60;99.90;;;;;;7333716;19;111340;-77
2023/03/18 09:17:15;;;;;;;;;;;15.70;99.90;;;;;;7334897;19;108808;-76
2023/03/18 09:19:42;;;;;;;;;;;15.80;99.90;;;;;;7333449;19;109115;-77
2023/03/18 09:22:10;;;;;;;;;;;15.80;99.90;;;;;;7333295;19;109107;-76
2023/03/18 09:24:37;;;;;;;;;;;15.90;99.90;;;;;;7336381;19;109916;-77
2023/03/18 09:27:03;;;;;;;;;;;15.90;99.90;;;;;;7339969;19;108884;-76
2023/03/18 09:29:31;;;;;;;;;;;16.00;99.90;;;;;;7335751;19;109504;-78
2023/03/18 09:31:59;;;;;;;;;;;16.10;99.90;;;;;;7331555;19;108877;-76
2023/03/18 09:34:26;;;;;;;;;;;16.10;99.90;;;;;;7334552;19;109391;-77
2023/03/18 09:36:53;;;;;;;;;;;16.20;99.90;;;;;;7334556;19;109643;-77
2023/03/18 09:39:20;;;;;;;;;;;16.20;99.90;;;;;;7336218;19;111387;-78
2023/03/18 09:41:47;;;;;;;;;;;16.30;99.90;;;;;;7333188;19;110197;-77
2023/03/18 09:44:14;;;;;;;;;;;16.30;99.90;;;;;;7336213;19;109689;-77
2023/03/18 09:46:44;;;;;;;;;;;16.30;99.90;;;;;;7334986;19;109941;-77
2023/03/18 09:49:33;;;;;;;;;;;16.30;99.90;;;;;;7336378;19;111608;-77
2023/03/18 09:52:15;;;;;;;;;;;16.30;99.90;;;;;;7336369;19;109180;-76
2023/03/18 09:54:43;;;;;;;;;;;16.30;99.90;;;;;;7334266;19;110070;-77
2023/03/18 09:57:16;;;;;;;;;;;16.40;99.90;;;;;;7334849;19;109692;-76
2023/03/18 09:59:45;;;;;;;;;;;16.30;99.90;;;;;;7335955;19;109167;-70
2023/03/18 10:02:29;;;;;;;;;;;16.30;99.90;;;;;;7332521;19;110050;-71
2023/03/18 10:04:58;;;;;;;;;;;16.30;99.90;;;;;;7331291;19;109163;-70
2023/03/18 10:07:32;;;;;;;;;;;16.30;99.90;;;;;;7324078;19;112086;-70
2023/03/18 10:10:01;;;;;;;;;;;16.30;99.90;;;;;;7329721;19;112364;-70
2023/03/18 10:12:35;;;;;;;;;;;16.30;99.90;;;;;;7338032;19;112414;-70
2023/03/18 10:15:11;;;;;;;;;;;16.30;99.90;;;;;;7332387;19;110582;-70
2023/03/18 10:17:50;;;;;;;;;;;16.20;99.90;;;;;;7333759;19;110488;-70
2023/03/18 10:20:26;;;;;;;;;;;16.20;99.90;;;;;;7334234;19;110268;-70
2023/03/18 10:22:53;;;;;;;;;;;16.20;99.90;;;;;;7331321;19;112706;-70
2023/03/18 10:25:26;;;;;;;;;;;16.30;99.90;;;;;;7332166;19;110097;-70
2023/03/18 10:28:11;;;;;;;;;;;16.20;99.90;;;;;;7336045;19;109520;-70
2023/03/18 10:30:43;;;;;;;;;;;16.10;99.90;;;;;;7331865;19;112760;-70
2023/03/18 10:33:28;;;;;;;;;;;16.10;99.90;;;;;;7332529;19;110553;-70
2023/03/18 10:36:19;;;;;;;;;;;16.10;99.90;;;;;;7339815;19;110545;-70
2023/03/18 10:38:47;;;;;;;;;;;16.00;99.90;;;;;;7332343;19;109171;-70
2023/03/18 10:41:14;;;;;;;;;;;16.00;99.90;;;;;;7334227;19;108989;-68
2023/03/18 10:43:41;;;;;;;;;;;15.90;99.90;;;;;;7333534;19;110058;-68
2023/03/18 10:46:10;;;;;;;;;;;15.90;99.90;;;;;;7331060;19;108677;-68
2023/03/18 10:48:37;;;;;;;;;;;15.80;99.90;;;;;;7333465;19;110056;-68
2023/03/18 10:51:08;;;;;;;;;;;15.80;99.90;;;;;;7333945;19;110124;-68
2023/03/18 10:53:45;;;;;;;;;;;15.70;99.90;;;;;;7330702;19;108573;-68
2023/03/18 10:56:13;;;;;;;;;;;15.70;99.90;;;;;;7332525;19;109231;-68
2023/03/18 10:58:41;;;;;;;;;;;15.70;99.90;;;;;;7337743;19;109539;-68
2023/03/18 11:01:10;;;;;;;;;;;15.60;99.90;;;;;;7333581;19;111526;-68
2023/03/18 11:03:43;;;;;;;;;;;15.60;99.90;;;;;;7330610;19;109132;-68
2023/03/18 11:06:16;;;;;;;;;;;15.60;99.90;;;;;;7331037;19;110811;-67
2023/03/18 11:08:45;;;;;;;;;;;15.60;99.90;;;;;;7329496;19;109425;-68
2023/03/18 11:11:21;;;;;;;;;;;15.50;99.90;;;;;;7332532;19;109126;-67
2023/03/18 11:13:49;;;;;;;;;;;15.50;99.90;;;;;;7331493;19;110873;-68
2023/03/18 11:16:21;;;;;;;;;;;15.50;99.90;;;;;;7334686;19;109304;-67
2023/03/18 11:18:50;;;;;;;;;;;15.40;99.90;;;;;;7331569;19;110472;-68
2023/03/18 11:21:17;;;;;;;;;;;15.40;99.90;;;;;;7341849;19;109466;-67
2023/03/18 11:23:55;;;;;;;;;;;15.40;99.90;;;;;;7336268;19;109793;-67
2023/03/18 11:26:29;;;;;;;;;;;15.40;99.90;;;;;;7341461;19;109508;-67
2023/03/18 11:28:57;;;;;;;;;;;15.40;99.90;;;;;;7340064;19;109403;-68
2023/03/18 11:31:24;;;;;;;;;;;15.40;99.90;;;;;;7337533;19;110064;-67
2023/03/18 11:33:55;;;;;;;;;;;15.30;99.90;;;;;;7338159;19;109207;-67
2023/03/18 11:36:23;;;;;;;;;;;15.30;99.90;;;;;;7341334;19;111964;-68
2023/03/18 11:38:57;;;;;;;;;;;15.30;99.90;;;;;;7340981;19;109202;-68
2023/03/18 11:41:26;;;;;;;;;;;15.30;99.90;;;;;;7345655;19;108839;-68
2023/03/18 11:44:00;;;;;;;;;;;15.30;99.90;;;;;;7338756;19;113947;-68
2023/03/18 11:46:32;;;;;;;;;;;15.30;99.90;;;;;;7340613;19;109140;-68
2023/03/18 11:48:59;;;;;;;;;;;15.30;99.90;;;;;;7342687;19;109192;-68
2023/03/18 11:51:45;;;;;;;;;;;15.30;99.90;;;;;;7337153;19;110661;-68
2023/03/18 11:54:21;;;;;;;;;;;15.30;99.90;;;;;;7338829;19;108955;-68
2023/03/18 11:56:56;;;;;;;;;;;15.30;99.90;;;;;;7331161;19;109541;-69
2023/03/18 11:59:33;;;;;;;;;;;15.30;99.90;;;;;;7336212;19;111747;-68
2023/03/18 12:02:09;;;;;;;;;;;15.30;99.90;;;;;;7337977;19;110221;-68
2023/03/18 12:04:45;;;;;;;;;;;15.30;99.90;;;;;;7336951;19;109046;-68
2023/03/18 12:07:22;;;;;;;;;;;15.30;99.90;;;;;;7330402;19;108691;-68
2023/03/18 12:09:49;;;;;;;;;;;15.40;99.90;;;;;;7327554;19;109445;-68
2023/03/18 12:12:17;;;;;;;;;;;15.40;99.90;;;;;;7325235;19;110404;-69
2023/03/18 12:15:02;;;;;;;;;;;15.40;99.90;;;;;;7326290;19;108660;-68
2023/03/18 12:17:48;;;;;;;;;;;15.50;99.90;;;;;;7337992;19;109053;-68
2023/03/18 12:20:17;;;;;;;;;;;15.70;99.90;;;;;;7335593;19;110556;-68
2023/03/18 12:22:48;;;;;;;;;;;15.90;99.90;;;;;;7341251;19;108591;-68
2023/03/18 12:25:22;;;;;;;;;;;16.10;99.90;;;;;;7338397;19;111287;-68
2023/03/18 12:28:02;;;;;;;;;;;16.20;99.90;;;;;;7341998;19;112191;-68
2023/03/18 12:30:58;;;;;;;;;;;16.20;99.90;;;;;;7336814;19;109209;-69
2023/03/18 12:33:31;;;;;;;;;;;16.30;99.90;;;;;;7330633;19;110973;-69
2023/03/18 12:36:07;;;;;;;;;;;16.60;99.90;;;;;;7334733;19;109550;-68
2023/03/18 12:39:01;;;;;;;;;;;16.70;99.90;;;;;;7331566;19;108813;-68
2023/03/18 12:41:38;;;;;;;;;;;16.80;99.90;;;;;;7329609;19;110706;-68
2023/03/18 12:44:14;;;;;;;;;;;16.90;99.90;;;;;;7327501;19;109727;-68
2023/03/18 12:46:44;;;;;;;;;;;17.00;99.90;;;;;;7332622;19;110246;-68
2023/03/18 12:49:15;;;;;;;;;;;17.10;99.90;;;;;;7333325;19;110218;-69
2023/03/18 12:52:02;;;;;;;;;;;17.40;99.90;;;;;;7338037;19;109274;-68
2023/03/18 12:54:31;;;;;;;;;;;17.50;99.90;;;;;;7334162;19;109133;-70
2023/03/18 12:57:02;;;;;;;;;;;17.60;99.90;;;;;;7334338;19;109343;-68
2023/03/18 12:59:36;;;;;;;;;;;17.70;99.90;;;;;;7334134;19;109461;-66
2023/03/18 13:02:12;;;;;;;;;;;17.80;99.90;;;;;;7333466;19;112166;-68
2023/03/18 13:04:44;;;;;;;;;;;17.80;99.90;;;;;;7332997;19;108482;-68
2023/03/18 13:07:16;;;;;;;;;;;17.80;99.90;;;;;;7335180;19;109579;-68
2023/03/18 13:09:47;;;;;;;;;;;17.90;99.90;;;;;;7331504;19;109708;-68
2023/03/18 13:12:14;;;;;;;;;;;17.80;99.90;;;;;;7337749;19;108704;-68
2023/03/18 13:14:50;;;;;;;;;;;17.80;99.90;;;;;;7337476;19;109275;-68
2023/03/18 13:17:50;;;;;;;;;;;17.80;99.90;;;;;;7331546;19;110174;-68
2023/03/18 13:20:22;;;;;;;;;;;18.00;99.90;;;;;;7333973;19;110693;-68
2023/03/18 13:23:04;;;;;;;;;;;18.30;99.90;;;;;;7336697;19;109128;-68
2023/03/18 13:25:50;;;;;;;;;;;18.40;99.90;;;;;;7333987;19;110413;-77
2023/03/18 13:28:29;;;;;;;;;;;18.40;99.90;;;;;;7339011;19;108526;-75
2023/03/18 13:30:59;;;;;;;;;;;18.40;99.90;;;;;;7334653;19;109700;-72
2023/03/18 13:33:46;;;;;;;;;;;18.40;99.90;;;;;;7335858;19;108874;-73
2023/03/18 13:36:22;;;;;;;;;;;18.40;99.90;;;;;;7335674;19;112749;-75
2023/03/18 13:38:58;;;;;;;;;;;18.30;99.90;;;;;;7342603;19;111969;-78
2023/03/18 13:41:31;;;;;;;;;;;18.20;99.90;;;;;;7335321;19;110299;-78
2023/03/18 13:44:05;;;;;;;;;;;18.40;99.90;;;;;;7338344;19;109161;-73
2023/03/18 13:46:32;;;;;;;;;;;18.60;99.90;;;;;;7335569;19;109478;-76
2023/03/18 13:49:00;;;;;;;;;;;18.70;99.90;;;;;;7336166;19;109034;-73
2023/03/18 13:51:27;;;;;;;;;;;18.80;99.90;;;;;;7337055;19;109764;-69
2023/03/18 13:54:00;;;;;;;;;;;19.10;99.90;;;;;;7337466;19;108364;-71
2023/03/18 13:56:31;;;;;;;;;;;19.20;99.90;;;;;;7337385;19;109992;-68
2023/03/18 13:59:04;;;;;;;;;;;19.40;99.90;;;;;;7343437;19;109435;-68
2023/03/18 14:01:32;;;;;;;;;;;19.60;99.90;;;;;;7335791;19;108680;-69
2023/03/18 14:04:00;;;;;;;;;;;19.70;99.90;;;;;;7335148;19;109289;-68
2023/03/18 14:06:33;;;;;;;;;;;19.70;99.90;;;;;;7335142;19;108556;-68
2023/03/18 14:09:20;;;;;;;;;;;19.80;99.90;;;;;;7337007;19;108637;-69
2023/03/18 14:11:50;;;;;;;;;;;19.90;99.90;;;;;;7335013;19;109574;-68
2023/03/18 14:14:36;;;;;;;;;;;20.10;99.90;;;;;;7335257;19;109117;-68
2023/03/18 14:17:03;;;;;;;;;;;20.00;99.90;;;;;;7335819;19;108812;-69
2023/03/18 14:19:33;;;;;;;;;;;20.00;99.90;;;;;;7334892;19;109169;-68
2023/03/18 14:22:12;;;;;;;;;;;20.10;99.90;;;;;;7340794;19;110979;-68
2023/03/18 14:24:39;;;;;;;;;;;20.20;99.90;;;;;;7335683;19;111082;-68
2023/03/18 14:27:09;;;;;;;;;;;20.30;99.90;;;;;;7336379;19;111216;-68
2023/03/18 14:29:36;;;;;;;;;;;20.40;99.90;;;;;;7334162;19;108775;-68